sensor_id;sensor_type;location;lat;lon;timestamp;P1;durP1;ratioP1;P2;durP2;ratioP2
69401;SDS011;56589;51.992;5.924;2023-05-07T00:02:21;11.05;;;6.20;;
69401;SDS011;56589;51.992;5.924;2023-05-07T00:04:47;9.48;;;6.32;;
69401;SDS011;56589;51.992;5.924;2023-05-07T00:07:13;10.18;;;5.72;;
69401;SDS011;56589;51.992;5.924;2023-05-07T00:09:39;11.57;;;6.63;;
69401;SDS011;56589;51.992;5.924;2023-05-07T00:12:05;10.00;;;6.43;;
69401;SDS011;56589;51.992;5.924;2023-05-07T00:14:32;8.98;;;5.85;;
69401;SDS011;56589;51.992;5.924;2023-05-07T00:17:01;8.93;;;6.03;;
69401;SDS011;56589;51.992;5.924;2023-05-07T00:19:27;11.55;;;6.50;;
69401;SDS011;56589;51.992;5.924;2023-05-07T00:21:53;9.85;;;5.97;;
69401;SDS011;56589;51.992;5.924;2023-05-07T00:24:19;9.63;;;6.25;;
69401;SDS011;56589;51.992;5.924;2023-05-07T00:26:45;9.68;;;6.38;;
69401;SDS011;56589;51.992;5.924;2023-05-07T00:29:11;10.15;;;6.63;;
69401;SDS011;56589;51.992;5.924;2023-05-07T00:31:37;8.73;;;6.25;;
69401;SDS011;56589;51.992;5.924;2023-05-07T00:34:05;8.73;;;6.22;;
69401;SDS011;56589;51.992;5.924;2023-05-07T00:36:31;8.30;;;6.10;;
69401;SDS011;56589;51.992;5.924;2023-05-07T00:38:59;9.35;;;6.72;;
69401;SDS011;56589;51.992;5.924;2023-05-07T00:41:26;11.25;;;6.82;;
69401;SDS011;56589;51.992;5.924;2023-05-07T00:43:51;10.43;;;6.97;;
69401;SDS011;56589;51.992;5.924;2023-05-07T00:46:18;8.23;;;7.30;;
69401;SDS011;56589;51.992;5.924;2023-05-07T00:48:45;8.15;;;6.85;;
69401;SDS011;56589;51.992;5.924;2023-05-07T00:51:14;9.25;;;6.90;;
69401;SDS011;56589;51.992;5.924;2023-05-07T00:53:41;11.93;;;7.25;;
69401;SDS011;56589;51.992;5.924;2023-05-07T00:56:07;9.05;;;7.10;;
69401;SDS011;56589;51.992;5.924;2023-05-07T00:58:33;11.48;;;7.93;;
69401;SDS011;56589;51.992;5.924;2023-05-07T01:01:00;8.52;;;7.07;;
69401;SDS011;56589;51.992;5.924;2023-05-07T01:03:27;11.57;;;7.10;;
69401;SDS011;56589;51.992;5.924;2023-05-07T01:05:52;12.27;;;7.50;;
69401;SDS011;56589;51.992;5.924;2023-05-07T01:08:24;12.82;;;7.38;;
69401;SDS011;56589;51.992;5.924;2023-05-07T01:10:51;11.63;;;7.38;;
69401;SDS011;56589;51.992;5.924;2023-05-07T01:13:18;13.73;;;8.20;;
69401;SDS011;56589;51.992;5.924;2023-05-07T01:15:44;11.48;;;8.60;;
69401;SDS011;56589;51.992;5.924;2023-05-07T01:18:10;11.52;;;8.50;;
69401;SDS011;56589;51.992;5.924;2023-05-07T01:20:36;16.77;;;9.30;;
69401;SDS011;56589;51.992;5.924;2023-05-07T01:23:05;12.77;;;8.77;;
69401;SDS011;56589;51.992;5.924;2023-05-07T01:25:33;12.27;;;8.55;;
69401;SDS011;56589;51.992;5.924;2023-05-07T01:28:00;12.95;;;8.85;;
69401;SDS011;56589;51.992;5.924;2023-05-07T01:30:25;10.85;;;8.93;;
69401;SDS011;56589;51.992;5.924;2023-05-07T01:32:56;11.40;;;8.50;;
69401;SDS011;56589;51.992;5.924;2023-05-07T01:35:27;12.80;;;8.88;;
69401;SDS011;56589;51.992;5.924;2023-05-07T01:37:59;16.23;;;10.10;;
69401;SDS011;56589;51.992;5.924;2023-05-07T01:40:28;15.75;;;9.77;;
69401;SDS011;56589;51.992;5.924;2023-05-07T01:42:54;11.02;;;8.90;;
69401;SDS011;56589;51.992;5.924;2023-05-07T01:45:20;14.20;;;9.23;;
69401;SDS011;56589;51.992;5.924;2023-05-07T01:47:46;11.18;;;8.85;;
69401;SDS011;56589;51.992;5.924;2023-05-07T01:50:14;12.82;;;10.20;;
69401;SDS011;56589;51.992;5.924;2023-05-07T01:52:44;13.23;;;9.40;;
69401;SDS011;56589;51.992;5.924;2023-05-07T01:55:10;14.13;;;9.57;;
69401;SDS011;56589;51.992;5.924;2023-05-07T01:57:38;13.60;;;10.50;;
69401;SDS011;56589;51.992;5.924;2023-05-07T02:00:04;13.57;;;9.52;;
69401;SDS011;56589;51.992;5.924;2023-05-07T02:02:32;14.43;;;10.43;;
69401;SDS011;56589;51.992;5.924;2023-05-07T02:04:59;13.85;;;11.10;;
69401;SDS011;56589;51.992;5.924;2023-05-07T02:07:25;13.27;;;9.70;;
69401;SDS011;56589;51.992;5.924;2023-05-07T02:09:51;14.32;;;10.18;;
69401;SDS011;56589;51.992;5.924;2023-05-07T02:12:17;14.23;;;10.40;;
69401;SDS011;56589;51.992;5.924;2023-05-07T02:14:45;15.90;;;10.32;;
69401;SDS011;56589;51.992;5.924;2023-05-07T02:17:11;13.52;;;10.20;;
69401;SDS011;56589;51.992;5.924;2023-05-07T02:19:37;11.60;;;9.98;;
69401;SDS011;56589;51.992;5.924;2023-05-07T02:22:02;12.45;;;9.38;;
69401;SDS011;56589;51.992;5.924;2023-05-07T02:24:28;15.02;;;10.30;;
69401;SDS011;56589;51.992;5.924;2023-05-07T02:26:54;14.05;;;9.43;;
69401;SDS011;56589;51.992;5.924;2023-05-07T02:29:20;11.40;;;10.25;;
69401;SDS011;56589;51.992;5.924;2023-05-07T02:31:48;14.05;;;10.23;;
69401;SDS011;56589;51.992;5.924;2023-05-07T02:34:14;13.30;;;9.90;;
69401;SDS011;56589;51.992;5.924;2023-05-07T02:36:40;13.57;;;10.23;;
69401;SDS011;56589;51.992;5.924;2023-05-07T02:39:06;12.80;;;10.15;;
69401;SDS011;56589;51.992;5.924;2023-05-07T02:41:32;13.85;;;9.98;;
69401;SDS011;56589;51.992;5.924;2023-05-07T02:43:57;10.40;;;9.30;;
69401;SDS011;56589;51.992;5.924;2023-05-07T02:46:23;12.18;;;10.23;;
69401;SDS011;56589;51.992;5.924;2023-05-07T02:48:52;12.68;;;10.27;;
69401;SDS011;56589;51.992;5.924;2023-05-07T02:51:19;12.63;;;10.75;;
69401;SDS011;56589;51.992;5.924;2023-05-07T02:53:46;13.27;;;9.90;;
69401;SDS011;56589;51.992;5.924;2023-05-07T02:56:12;13.00;;;9.85;;
69401;SDS011;56589;51.992;5.924;2023-05-07T02:58:38;12.38;;;9.48;;
69401;SDS011;56589;51.992;5.924;2023-05-07T03:01:03;11.80;;;9.60;;
69401;SDS011;56589;51.992;5.924;2023-05-07T03:03:30;10.70;;;9.55;;
69401;SDS011;56589;51.992;5.924;2023-05-07T03:05:58;13.70;;;8.93;;
69401;SDS011;56589;51.992;5.924;2023-05-07T03:08:24;11.65;;;9.07;;
69401;SDS011;56589;51.992;5.924;2023-05-07T03:10:49;15.00;;;9.77;;
69401;SDS011;56589;51.992;5.924;2023-05-07T03:13:16;12.80;;;9.73;;
69401;SDS011;56589;51.992;5.924;2023-05-07T03:15:42;12.45;;;9.57;;
69401;SDS011;56589;51.992;5.924;2023-05-07T03:18:08;14.98;;;9.77;;
69401;SDS011;56589;51.992;5.924;2023-05-07T03:20:34;14.15;;;9.43;;
69401;SDS011;56589;51.992;5.924;2023-05-07T03:23:02;12.82;;;9.50;;
69401;SDS011;56589;51.992;5.924;2023-05-07T03:25:28;13.40;;;9.55;;
69401;SDS011;56589;51.992;5.924;2023-05-07T03:27:54;13.52;;;9.20;;
69401;SDS011;56589;51.992;5.924;2023-05-07T03:30:20;15.57;;;9.80;;
69401;SDS011;56589;51.992;5.924;2023-05-07T03:32:46;15.10;;;9.48;;
69401;SDS011;56589;51.992;5.924;2023-05-07T03:35:12;14.55;;;9.55;;
69401;SDS011;56589;51.992;5.924;2023-05-07T03:37:38;12.90;;;9.77;;
69401;SDS011;56589;51.992;5.924;2023-05-07T03:40:07;12.70;;;9.70;;
69401;SDS011;56589;51.992;5.924;2023-05-07T03:42:34;15.10;;;10.02;;
69401;SDS011;56589;51.992;5.924;2023-05-07T03:45:00;14.15;;;10.45;;
69401;SDS011;56589;51.992;5.924;2023-05-07T03:47:26;13.20;;;9.48;;
69401;SDS011;56589;51.992;5.924;2023-05-07T03:49:52;15.35;;;10.98;;
69401;SDS011;56589;51.992;5.924;2023-05-07T03:52:17;13.27;;;10.57;;
69401;SDS011;56589;51.992;5.924;2023-05-07T03:54:43;16.60;;;11.50;;
69401;SDS011;56589;51.992;5.924;2023-05-07T03:57:12;15.07;;;11.15;;
69401;SDS011;56589;51.992;5.924;2023-05-07T03:59:37;14.25;;;11.23;;
69401;SDS011;56589;51.992;5.924;2023-05-07T04:02:03;14.20;;;11.73;;
69401;SDS011;56589;51.992;5.924;2023-05-07T04:04:29;16.17;;;12.70;;
69401;SDS011;56589;51.992;5.924;2023-05-07T04:06:55;14.57;;;11.75;;
69401;SDS011;56589;51.992;5.924;2023-05-07T04:09:21;14.85;;;12.68;;
69401;SDS011;56589;51.992;5.924;2023-05-07T04:11:46;15.48;;;12.35;;
69401;SDS011;56589;51.992;5.924;2023-05-07T04:14:15;16.35;;;13.50;;
69401;SDS011;56589;51.992;5.924;2023-05-07T04:16:41;15.00;;;13.48;;
69401;SDS011;56589;51.992;5.924;2023-05-07T04:19:06;17.17;;;13.23;;
69401;SDS011;56589;51.992;5.924;2023-05-07T04:21:32;16.00;;;13.23;;
69401;SDS011;56589;51.992;5.924;2023-05-07T04:23:58;16.67;;;13.40;;
69401;SDS011;56589;51.992;5.924;2023-05-07T04:26:24;16.05;;;13.73;;
69401;SDS011;56589;51.992;5.924;2023-05-07T04:28:50;19.13;;;13.35;;
69401;SDS011;56589;51.992;5.924;2023-05-07T04:31:18;16.27;;;13.43;;
69401;SDS011;56589;51.992;5.924;2023-05-07T04:33:44;15.13;;;13.20;;
69401;SDS011;56589;51.992;5.924;2023-05-07T04:36:10;21.48;;;13.70;;
69401;SDS011;56589;51.992;5.924;2023-05-07T04:38:35;16.90;;;13.43;;
69401;SDS011;56589;51.992;5.924;2023-05-07T04:41:02;18.38;;;14.43;;
69401;SDS011;56589;51.992;5.924;2023-05-07T04:43:29;19.15;;;14.23;;
69401;SDS011;56589;51.992;5.924;2023-05-07T04:45:55;17.23;;;14.45;;
69401;SDS011;56589;51.992;5.924;2023-05-07T04:48:23;19.05;;;14.90;;
69401;SDS011;56589;51.992;5.924;2023-05-07T04:50:49;19.20;;;14.35;;
69401;SDS011;56589;51.992;5.924;2023-05-07T04:53:16;19.90;;;15.30;;
69401;SDS011;56589;51.992;5.924;2023-05-07T04:55:42;19.60;;;15.00;;
69401;SDS011;56589;51.992;5.924;2023-05-07T04:58:08;18.30;;;15.32;;
69401;SDS011;56589;51.992;5.924;2023-05-07T05:00:34;16.58;;;14.45;;
69401;SDS011;56589;51.992;5.924;2023-05-07T05:03:00;20.63;;;15.52;;
69401;SDS011;56589;51.992;5.924;2023-05-07T05:05:29;17.20;;;14.93;;
69401;SDS011;56589;51.992;5.924;2023-05-07T05:07:54;17.25;;;15.40;;
69401;SDS011;56589;51.992;5.924;2023-05-07T05:10:20;21.50;;;16.05;;
69401;SDS011;56589;51.992;5.924;2023-05-07T05:12:47;20.15;;;15.98;;
69401;SDS011;56589;51.992;5.924;2023-05-07T05:15:13;19.17;;;14.90;;
69401;SDS011;56589;51.992;5.924;2023-05-07T05:17:38;19.75;;;15.40;;
69401;SDS011;56589;51.992;5.924;2023-05-07T05:20:05;17.42;;;15.57;;
69401;SDS011;56589;51.992;5.924;2023-05-07T05:22:34;19.33;;;14.85;;
69401;SDS011;56589;51.992;5.924;2023-05-07T05:25:00;17.92;;;14.85;;
69401;SDS011;56589;51.992;5.924;2023-05-07T05:27:26;19.88;;;14.25;;
69401;SDS011;56589;51.992;5.924;2023-05-07T05:29:52;17.88;;;14.38;;
69401;SDS011;56589;51.992;5.924;2023-05-07T05:32:17;18.08;;;14.18;;
69401;SDS011;56589;51.992;5.924;2023-05-07T05:34:43;17.00;;;15.05;;
69401;SDS011;56589;51.992;5.924;2023-05-07T05:37:09;17.50;;;15.05;;
69401;SDS011;56589;51.992;5.924;2023-05-07T05:39:38;18.90;;;15.07;;
69401;SDS011;56589;51.992;5.924;2023-05-07T05:42:04;20.85;;;15.23;;
69401;SDS011;56589;51.992;5.924;2023-05-07T05:44:30;18.52;;;14.98;;
69401;SDS011;56589;51.992;5.924;2023-05-07T05:46:56;18.60;;;15.15;;
69401;SDS011;56589;51.992;5.924;2023-05-07T05:49:22;18.20;;;14.93;;
69401;SDS011;56589;51.992;5.924;2023-05-07T05:51:48;18.02;;;15.55;;
69401;SDS011;56589;51.992;5.924;2023-05-07T05:54:13;16.75;;;14.48;;
69401;SDS011;56589;51.992;5.924;2023-05-07T05:56:42;16.33;;;14.63;;
69401;SDS011;56589;51.992;5.924;2023-05-07T05:59:08;15.88;;;14.25;;
69401;SDS011;56589;51.992;5.924;2023-05-07T06:01:34;19.00;;;14.93;;
69401;SDS011;56589;51.992;5.924;2023-05-07T06:04:00;16.27;;;13.88;;
69401;SDS011;56589;51.992;5.924;2023-05-07T06:06:25;17.13;;;14.85;;
69401;SDS011;56589;51.992;5.924;2023-05-07T06:08:51;18.10;;;14.25;;
69401;SDS011;56589;51.992;5.924;2023-05-07T06:11:17;19.25;;;15.02;;
69401;SDS011;56589;51.992;5.924;2023-05-07T06:13:46;15.98;;;13.68;;
69401;SDS011;56589;51.992;5.924;2023-05-07T06:16:11;15.73;;;13.90;;
69401;SDS011;56589;51.992;5.924;2023-05-07T06:18:37;16.75;;;13.27;;
69401;SDS011;56589;51.992;5.924;2023-05-07T06:21:03;16.30;;;14.57;;
69401;SDS011;56589;51.992;5.924;2023-05-07T06:23:30;15.90;;;13.95;;
69401;SDS011;56589;51.992;5.924;2023-05-07T06:25:55;15.40;;;13.77;;
69401;SDS011;56589;51.992;5.924;2023-05-07T06:28:21;16.60;;;13.85;;
69401;SDS011;56589;51.992;5.924;2023-05-07T06:30:50;16.42;;;14.20;;
69401;SDS011;56589;51.992;5.924;2023-05-07T06:33:15;17.33;;;13.80;;
69401;SDS011;56589;51.992;5.924;2023-05-07T06:35:41;17.67;;;14.02;;
69401;SDS011;56589;51.992;5.924;2023-05-07T06:38:07;15.98;;;14.27;;
69401;SDS011;56589;51.992;5.924;2023-05-07T06:40:33;16.17;;;14.32;;
69401;SDS011;56589;51.992;5.924;2023-05-07T06:42:59;17.15;;;14.30;;
69401;SDS011;56589;51.992;5.924;2023-05-07T06:45:25;16.20;;;14.27;;
69401;SDS011;56589;51.992;5.924;2023-05-07T06:47:53;16.60;;;14.80;;
69401;SDS011;56589;51.992;5.924;2023-05-07T06:50:19;17.02;;;14.93;;
69401;SDS011;56589;51.992;5.924;2023-05-07T06:52:45;18.58;;;15.25;;
69401;SDS011;56589;51.992;5.924;2023-05-07T06:55:10;19.40;;;15.40;;
69401;SDS011;56589;51.992;5.924;2023-05-07T06:57:37;18.00;;;14.68;;
69401;SDS011;56589;51.992;5.924;2023-05-07T07:00:03;16.15;;;14.48;;
69401;SDS011;56589;51.992;5.924;2023-05-07T07:02:31;16.55;;;14.40;;
69401;SDS011;56589;51.992;5.924;2023-05-07T07:04:59;17.50;;;14.77;;
69401;SDS011;56589;51.992;5.924;2023-05-07T07:07:25;18.60;;;14.45;;
69401;SDS011;56589;51.992;5.924;2023-05-07T07:09:50;18.05;;;15.45;;
69401;SDS011;56589;51.992;5.924;2023-05-07T07:12:16;16.02;;;14.25;;
69401;SDS011;56589;51.992;5.924;2023-05-07T07:14:42;16.42;;;14.68;;
69401;SDS011;56589;51.992;5.924;2023-05-07T07:17:08;19.42;;;15.05;;
69401;SDS011;56589;51.992;5.924;2023-05-07T07:19:34;19.45;;;14.68;;
69401;SDS011;56589;51.992;5.924;2023-05-07T07:22:03;16.92;;;13.90;;
69401;SDS011;56589;51.992;5.924;2023-05-07T07:24:28;18.98;;;15.15;;
69401;SDS011;56589;51.992;5.924;2023-05-07T07:26:54;20.08;;;14.52;;
69401;SDS011;56589;51.992;5.924;2023-05-07T07:29:20;17.63;;;14.50;;
69401;SDS011;56589;51.992;5.924;2023-05-07T07:31:46;21.88;;;15.10;;
69401;SDS011;56589;51.992;5.924;2023-05-07T07:34:13;16.30;;;14.50;;
69401;SDS011;56589;51.992;5.924;2023-05-07T07:36:38;16.83;;;13.60;;
69401;SDS011;56589;51.992;5.924;2023-05-07T07:39:07;19.08;;;14.63;;
69401;SDS011;56589;51.992;5.924;2023-05-07T07:41:33;22.58;;;18.38;;
69401;SDS011;56589;51.992;5.924;2023-05-07T07:43:58;17.00;;;15.15;;
69401;SDS011;56589;51.992;5.924;2023-05-07T07:46:24;18.80;;;16.58;;
69401;SDS011;56589;51.992;5.924;2023-05-07T07:48:50;16.73;;;14.15;;
69401;SDS011;56589;51.992;5.924;2023-05-07T07:51:16;18.67;;;13.55;;
69401;SDS011;56589;51.992;5.924;2023-05-07T07:53:42;17.38;;;14.50;;
69401;SDS011;56589;51.992;5.924;2023-05-07T07:56:10;18.90;;;14.57;;
69401;SDS011;56589;51.992;5.924;2023-05-07T07:58:36;17.13;;;14.25;;
69401;SDS011;56589;51.992;5.924;2023-05-07T08:01:02;19.20;;;14.88;;
69401;SDS011;56589;51.992;5.924;2023-05-07T08:03:28;17.52;;;14.52;;
69401;SDS011;56589;51.992;5.924;2023-05-07T08:05:54;18.98;;;15.05;;
69401;SDS011;56589;51.992;5.924;2023-05-07T08:08:20;19.17;;;14.20;;
69401;SDS011;56589;51.992;5.924;2023-05-07T08:10:46;18.05;;;15.23;;
69401;SDS011;56589;51.992;5.924;2023-05-07T08:13:14;19.58;;;15.32;;
69401;SDS011;56589;51.992;5.924;2023-05-07T08:15:40;17.98;;;14.30;;
69401;SDS011;56589;51.992;5.924;2023-05-07T08:18:06;18.35;;;15.43;;
69401;SDS011;56589;51.992;5.924;2023-05-07T08:20:32;18.55;;;15.18;;
69401;SDS011;56589;51.992;5.924;2023-05-07T08:22:58;19.40;;;14.75;;
69401;SDS011;56589;51.992;5.924;2023-05-07T08:25:24;22.88;;;15.32;;
69401;SDS011;56589;51.992;5.924;2023-05-07T08:27:50;17.02;;;15.23;;
69401;SDS011;56589;51.992;5.924;2023-05-07T08:30:18;18.83;;;14.95;;
69401;SDS011;56589;51.992;5.924;2023-05-07T08:32:44;17.40;;;14.95;;
69401;SDS011;56589;51.992;5.924;2023-05-07T08:35:10;20.58;;;14.43;;
69401;SDS011;56589;51.992;5.924;2023-05-07T08:37:36;19.40;;;15.55;;
69401;SDS011;56589;51.992;5.924;2023-05-07T08:40:01;18.92;;;14.25;;
69401;SDS011;56589;51.992;5.924;2023-05-07T08:42:28;18.20;;;14.43;;
69401;SDS011;56589;51.992;5.924;2023-05-07T08:45:00;18.63;;;14.45;;
69401;SDS011;56589;51.992;5.924;2023-05-07T08:47:33;18.80;;;14.23;;
69401;SDS011;56589;51.992;5.924;2023-05-07T08:50:06;19.45;;;14.07;;
69401;SDS011;56589;51.992;5.924;2023-05-07T08:52:33;17.65;;;15.15;;
69401;SDS011;56589;51.992;5.924;2023-05-07T08:55:00;17.48;;;13.32;;
69401;SDS011;56589;51.992;5.924;2023-05-07T08:57:28;16.30;;;13.18;;
69401;SDS011;56589;51.992;5.924;2023-05-07T08:59:54;15.43;;;13.27;;
69401;SDS011;56589;51.992;5.924;2023-05-07T09:02:20;16.70;;;13.15;;
69401;SDS011;56589;51.992;5.924;2023-05-07T09:04:48;15.18;;;13.07;;
69401;SDS011;56589;51.992;5.924;2023-05-07T09:07:14;18.90;;;13.05;;
69401;SDS011;56589;51.992;5.924;2023-05-07T09:09:40;19.30;;;13.25;;
69401;SDS011;56589;51.992;5.924;2023-05-07T09:12:06;14.65;;;12.20;;
69401;SDS011;56589;51.992;5.924;2023-05-07T09:14:32;15.40;;;12.30;;
69401;SDS011;56589;51.992;5.924;2023-05-07T09:16:58;18.02;;;12.32;;
69401;SDS011;56589;51.992;5.924;2023-05-07T09:19:24;17.20;;;11.85;;
69401;SDS011;56589;51.992;5.924;2023-05-07T09:22:00;16.75;;;12.48;;
69401;SDS011;56589;51.992;5.924;2023-05-07T09:24:27;16.10;;;13.57;;
69401;SDS011;56589;51.992;5.924;2023-05-07T09:26:53;17.23;;;12.68;;
69401;SDS011;56589;51.992;5.924;2023-05-07T09:29:19;17.75;;;12.75;;
69401;SDS011;56589;51.992;5.924;2023-05-07T09:31:45;16.48;;;13.15;;
69401;SDS011;56589;51.992;5.924;2023-05-07T09:34:10;14.32;;;12.15;;
69401;SDS011;56589;51.992;5.924;2023-05-07T09:36:36;16.25;;;11.02;;
69401;SDS011;56589;51.992;5.924;2023-05-07T09:39:05;20.65;;;11.85;;
69401;SDS011;56589;51.992;5.924;2023-05-07T09:41:31;14.27;;;11.68;;
69401;SDS011;56589;51.992;5.924;2023-05-07T09:43:57;16.40;;;11.95;;
69401;SDS011;56589;51.992;5.924;2023-05-07T09:46:25;16.15;;;11.80;;
69401;SDS011;56589;51.992;5.924;2023-05-07T09:48:56;12.43;;;10.45;;
69401;SDS011;56589;51.992;5.924;2023-05-07T09:51:24;15.85;;;11.73;;
69401;SDS011;56589;51.992;5.924;2023-05-07T09:53:56;12.70;;;10.52;;
69401;SDS011;56589;51.992;5.924;2023-05-07T09:56:25;12.55;;;10.30;;
69401;SDS011;56589;51.992;5.924;2023-05-07T09:58:54;13.18;;;10.85;;
69401;SDS011;56589;51.992;5.924;2023-05-07T10:01:24;13.15;;;10.95;;
69401;SDS011;56589;51.992;5.924;2023-05-07T10:03:51;14.75;;;11.60;;
69401;SDS011;56589;51.992;5.924;2023-05-07T10:06:18;12.02;;;9.90;;
69401;SDS011;56589;51.992;5.924;2023-05-07T10:08:45;12.43;;;10.68;;
69401;SDS011;56589;51.992;5.924;2023-05-07T10:11:11;12.95;;;10.93;;
69401;SDS011;56589;51.992;5.924;2023-05-07T10:13:40;15.07;;;11.25;;
69401;SDS011;56589;51.992;5.924;2023-05-07T10:16:08;12.57;;;10.50;;
69401;SDS011;56589;51.992;5.924;2023-05-07T10:18:34;12.05;;;10.27;;
69401;SDS011;56589;51.992;5.924;2023-05-07T10:21:01;14.68;;;9.80;;
69401;SDS011;56589;51.992;5.924;2023-05-07T10:23:33;14.98;;;10.63;;
69401;SDS011;56589;51.992;5.924;2023-05-07T10:26:00;11.38;;;10.18;;
69401;SDS011;56589;51.992;5.924;2023-05-07T10:28:30;14.27;;;11.07;;
69401;SDS011;56589;51.992;5.924;2023-05-07T10:34:14;13.57;;;10.98;;
69401;SDS011;56589;51.992;5.924;2023-05-07T10:36:46;13.40;;;9.98;;
69401;SDS011;56589;51.992;5.924;2023-05-07T10:39:14;14.95;;;10.73;;
69401;SDS011;56589;51.992;5.924;2023-05-07T10:41:40;11.18;;;10.02;;
69401;SDS011;56589;51.992;5.924;2023-05-07T10:44:06;12.90;;;10.27;;
69401;SDS011;56589;51.992;5.924;2023-05-07T10:46:34;11.98;;;8.48;;
69401;SDS011;56589;51.992;5.924;2023-05-07T10:49:07;13.68;;;9.88;;
69401;SDS011;56589;51.992;5.924;2023-05-07T10:51:35;11.23;;;8.63;;
69401;SDS011;56589;51.992;5.924;2023-05-07T10:54:19;10.50;;;9.45;;
69401;SDS011;56589;51.992;5.924;2023-05-07T10:56:47;11.77;;;8.57;;
69401;SDS011;56589;51.992;5.924;2023-05-07T11:02:03;10.65;;;9.40;;
69401;SDS011;56589;51.992;5.924;2023-05-07T11:04:29;11.95;;;8.23;;
69401;SDS011;56589;51.992;5.924;2023-05-07T11:10:02;13.00;;;9.40;;
69401;SDS011;56589;51.992;5.924;2023-05-07T11:18:03;8.63;;;7.72;;
69401;SDS011;56589;51.992;5.924;2023-05-07T11:20:50;12.10;;;9.52;;
69401;SDS011;56589;51.992;5.924;2023-05-07T11:26:20;13.20;;;9.60;;
69401;SDS011;56589;51.992;5.924;2023-05-07T11:28:47;12.13;;;9.27;;
69401;SDS011;56589;51.992;5.924;2023-05-07T11:31:13;10.15;;;9.05;;
69401;SDS011;56589;51.992;5.924;2023-05-07T11:33:43;11.18;;;9.38;;
69401;SDS011;56589;51.992;5.924;2023-05-07T11:36:09;10.85;;;8.95;;
69401;SDS011;56589;51.992;5.924;2023-05-07T11:38:36;11.80;;;9.00;;
69401;SDS011;56589;51.992;5.924;2023-05-07T11:41:03;12.68;;;9.27;;
69401;SDS011;56589;51.992;5.924;2023-05-07T11:43:29;11.10;;;8.95;;
69401;SDS011;56589;51.992;5.924;2023-05-07T11:46:04;12.27;;;9.48;;
69401;SDS011;56589;51.992;5.924;2023-05-07T11:48:33;13.85;;;10.23;;
69401;SDS011;56589;51.992;5.924;2023-05-07T11:51:02;10.90;;;9.68;;
69401;SDS011;56589;51.992;5.924;2023-05-07T11:53:35;9.45;;;8.38;;
69401;SDS011;56589;51.992;5.924;2023-05-07T11:56:06;10.60;;;8.80;;
69401;SDS011;56589;51.992;5.924;2023-05-07T11:58:33;11.18;;;8.45;;
69401;SDS011;56589;51.992;5.924;2023-05-07T12:00:59;10.23;;;8.55;;
69401;SDS011;56589;51.992;5.924;2023-05-07T12:03:25;11.70;;;8.75;;
69401;SDS011;56589;51.992;5.924;2023-05-07T12:05:51;11.07;;;8.25;;
69401;SDS011;56589;51.992;5.924;2023-05-07T12:08:20;11.02;;;8.98;;
69401;SDS011;56589;51.992;5.924;2023-05-07T12:10:47;11.48;;;9.07;;
69401;SDS011;56589;51.992;5.924;2023-05-07T12:13:15;9.98;;;8.77;;
69401;SDS011;56589;51.992;5.924;2023-05-07T12:15:41;9.10;;;8.05;;
69401;SDS011;56589;51.992;5.924;2023-05-07T12:18:07;9.20;;;8.20;;
69401;SDS011;56589;51.992;5.924;2023-05-07T12:20:33;9.88;;;8.20;;
69401;SDS011;56589;51.992;5.924;2023-05-07T12:23:00;10.90;;;9.20;;
69401;SDS011;56589;51.992;5.924;2023-05-07T12:25:30;9.45;;;7.82;;
69401;SDS011;56589;51.992;5.924;2023-05-07T12:27:56;8.65;;;7.75;;
69401;SDS011;56589;51.992;5.924;2023-05-07T12:30:22;9.02;;;7.65;;
69401;SDS011;56589;51.992;5.924;2023-05-07T12:32:48;9.75;;;7.70;;
69401;SDS011;56589;51.992;5.924;2023-05-07T12:35:25;8.60;;;7.18;;
69401;SDS011;56589;51.992;5.924;2023-05-07T12:37:54;13.38;;;8.57;;
69401;SDS011;56589;51.992;5.924;2023-05-07T12:40:20;9.35;;;7.43;;
69401;SDS011;56589;51.992;5.924;2023-05-07T12:42:49;8.93;;;7.70;;
69401;SDS011;56589;51.992;5.924;2023-05-07T12:45:18;9.50;;;7.57;;
69401;SDS011;56589;51.992;5.924;2023-05-07T12:47:44;9.25;;;7.20;;
69401;SDS011;56589;51.992;5.924;2023-05-07T12:50:11;9.57;;;7.18;;
69401;SDS011;56589;51.992;5.924;2023-05-07T12:52:37;8.35;;;6.50;;
69401;SDS011;56589;51.992;5.924;2023-05-07T12:55:06;9.77;;;6.70;;
69401;SDS011;56589;51.992;5.924;2023-05-07T12:57:37;9.27;;;7.45;;
69401;SDS011;56589;51.992;5.924;2023-05-07T13:00:07;11.70;;;7.35;;
69401;SDS011;56589;51.992;5.924;2023-05-07T13:02:37;8.75;;;7.63;;
69401;SDS011;56589;51.992;5.924;2023-05-07T13:05:04;10.70;;;7.63;;
69401;SDS011;56589;51.992;5.924;2023-05-07T13:07:31;11.35;;;7.90;;
69401;SDS011;56589;51.992;5.924;2023-05-07T13:09:56;11.73;;;7.93;;
69401;SDS011;56589;51.992;5.924;2023-05-07T13:12:22;9.77;;;7.93;;
69401;SDS011;56589;51.992;5.924;2023-05-07T13:14:48;10.82;;;8.23;;
69401;SDS011;56589;51.992;5.924;2023-05-07T13:17:16;11.80;;;7.45;;
69401;SDS011;56589;51.992;5.924;2023-05-07T13:19:42;9.98;;;7.80;;
69401;SDS011;56589;51.992;5.924;2023-05-07T13:22:08;9.55;;;7.72;;
69401;SDS011;56589;51.992;5.924;2023-05-07T13:24:33;11.25;;;8.23;;
69401;SDS011;56589;51.992;5.924;2023-05-07T13:26:59;11.75;;;7.72;;
69401;SDS011;56589;51.992;5.924;2023-05-07T13:29:25;9.00;;;7.35;;
69401;SDS011;56589;51.992;5.924;2023-05-07T13:31:51;10.57;;;8.32;;
69401;SDS011;56589;51.992;5.924;2023-05-07T13:34:19;10.52;;;7.97;;
69401;SDS011;56589;51.992;5.924;2023-05-07T13:36:45;7.95;;;7.07;;
69401;SDS011;56589;51.992;5.924;2023-05-07T13:39:11;8.63;;;7.10;;
69401;SDS011;56589;51.992;5.924;2023-05-07T13:41:36;9.85;;;7.20;;
69401;SDS011;56589;51.992;5.924;2023-05-07T13:44:02;11.05;;;7.50;;
69401;SDS011;56589;51.992;5.924;2023-05-07T13:46:28;8.52;;;7.00;;
69401;SDS011;56589;51.992;5.924;2023-05-07T13:48:54;7.90;;;6.80;;
69401;SDS011;56589;51.992;5.924;2023-05-07T13:51:22;8.52;;;6.40;;
69401;SDS011;56589;51.992;5.924;2023-05-07T13:53:48;9.55;;;6.97;;
69401;SDS011;56589;51.992;5.924;2023-05-07T13:56:14;9.77;;;7.03;;
69401;SDS011;56589;51.992;5.924;2023-05-07T13:58:40;8.57;;;7.10;;
69401;SDS011;56589;51.992;5.924;2023-05-07T14:01:06;10.05;;;6.28;;
69401;SDS011;56589;51.992;5.924;2023-05-07T14:03:32;7.50;;;5.50;;
69401;SDS011;56589;51.992;5.924;2023-05-07T14:05:58;7.38;;;5.68;;
69401;SDS011;56589;51.992;5.924;2023-05-07T14:08:26;5.78;;;4.68;;
69401;SDS011;56589;51.992;5.924;2023-05-07T14:10:52;9.07;;;5.55;;
69401;SDS011;56589;51.992;5.924;2023-05-07T14:13:18;7.78;;;4.97;;
69401;SDS011;56589;51.992;5.924;2023-05-07T14:15:44;7.13;;;5.03;;
69401;SDS011;56589;51.992;5.924;2023-05-07T14:18:10;6.97;;;5.40;;
69401;SDS011;56589;51.992;5.924;2023-05-07T14:20:36;10.85;;;6.57;;
69401;SDS011;56589;51.992;5.924;2023-05-07T14:23:01;8.27;;;5.82;;
69401;SDS011;56589;51.992;5.924;2023-05-07T14:25:30;6.00;;;5.25;;
69401;SDS011;56589;51.992;5.924;2023-05-07T14:27:56;10.63;;;7.57;;
69401;SDS011;56589;51.992;5.924;2023-05-07T14:30:21;8.73;;;6.35;;
69401;SDS011;56589;51.992;5.924;2023-05-07T14:32:47;9.70;;;7.05;;
69401;SDS011;56589;51.992;5.924;2023-05-07T14:35:14;12.07;;;8.30;;
69401;SDS011;56589;51.992;5.924;2023-05-07T14:37:39;11.88;;;7.95;;
69401;SDS011;56589;51.992;5.924;2023-05-07T14:40:06;9.80;;;7.68;;
69401;SDS011;56589;51.992;5.924;2023-05-07T14:42:36;10.18;;;7.20;;
69401;SDS011;56589;51.992;5.924;2023-05-07T14:45:02;9.18;;;6.90;;
69401;SDS011;56589;51.992;5.924;2023-05-07T14:47:29;8.50;;;6.55;;